createdAt,value
2023-01-03T00:00:55.273Z,100457.69
2023-01-03T00:03:27.957Z,100467.56
2023-01-03T00:05:59.893Z,100470.47
2023-01-03T00:08:32.005Z,100479.78
2023-01-03T00:11:12.378Z,100484.88
2023-01-03T00:13:45.349Z,100490.44
2023-01-03T00:16:19.393Z,100487.28
2023-01-03T00:18:51.407Z,100470.44
2023-01-03T00:21:23.390Z,100467.50
2023-01-03T00:23:56.517Z,100492.53
2023-01-03T00:26:29.223Z,100502.28
2023-01-03T00:29:01.424Z,100493.13
2023-01-03T00:31:33.391Z,100494.31
2023-01-03T00:34:05.861Z,100521.75
2023-01-03T00:36:38.924Z,100493.38
2023-01-03T00:39:12.244Z,100511.31
2023-01-03T00:41:44.335Z,100480.25
2023-01-03T00:44:16.608Z,100536.31
2023-01-03T00:46:48.729Z,100493.94
2023-01-03T00:49:20.967Z,100516.34
2023-01-03T00:51:56.063Z,100534.75
2023-01-03T00:54:28.024Z,100520.41
2023-01-03T00:57:00.001Z,100530.84
2023-01-03T00:59:31.985Z,100489.41
2023-01-03T01:02:05.386Z,100546.28
2023-01-03T01:04:37.366Z,100537.00
2023-01-03T01:07:10.320Z,100545.41
2023-01-03T01:09:42.199Z,100513.91
2023-01-03T01:12:14.062Z,100545.66
2023-01-03T01:14:46.028Z,100525.94
2023-01-03T01:17:22.586Z,100530.81
2023-01-03T01:19:55.299Z,100526.50
2023-01-03T01:22:27.217Z,100523.34
2023-01-03T01:24:59.056Z,100536.00
2023-01-03T01:27:31.950Z,100534.03
2023-01-03T01:30:04.442Z,100558.03
2023-01-03T01:32:36.385Z,100543.19
2023-01-03T01:35:08.857Z,100555.03
2023-01-03T01:37:40.801Z,100552.81
2023-01-03T01:40:13.216Z,100561.72
2023-01-03T01:43:04.001Z,100560.88
2023-01-03T01:45:36.401Z,100570.69
2023-01-03T01:48:13.420Z,100566.44
2023-01-03T01:50:50.422Z,100565.44
2023-01-03T01:53:27.924Z,100564.22
2023-01-03T01:56:15.777Z,100567.00
2023-01-03T01:58:50.825Z,100578.50
2023-01-03T02:01:24.931Z,100583.94
2023-01-03T02:04:08.167Z,100585.84
2023-01-03T02:06:40.805Z,100547.81
2023-01-03T02:09:13.046Z,100575.91
2023-01-03T02:12:13.711Z,100582.56
2023-01-03T02:15:16.331Z,100590.16
2023-01-03T02:18:30.063Z,100599.16
2023-01-03T02:21:19.643Z,100613.78
2023-01-03T02:24:10.521Z,100605.91
2023-01-03T02:27:07.296Z,100612.19
2023-01-03T02:29:48.219Z,100619.72
2023-01-03T02:32:34.014Z,100615.81
2023-01-03T02:35:23.551Z,100608.38
2023-01-03T02:38:18.074Z,100608.28
2023-01-03T02:41:18.244Z,100616.47
2023-01-03T02:44:05.270Z,100608.56
2023-01-03T02:46:47.117Z,100616.16
2023-01-03T02:49:37.847Z,100622.09
2023-01-03T02:52:29.167Z,100627.94
2023-01-03T02:55:07.418Z,100633.69
2023-01-03T02:57:45.911Z,100633.59
2023-01-03T03:00:22.881Z,100636.81
2023-01-03T03:03:01.082Z,100649.50
2023-01-03T03:06:02.702Z,100623.31
2023-01-03T03:08:34.713Z,100640.34
2023-01-03T03:11:26.176Z,100629.22
2023-01-03T03:14:10.022Z,100648.31
2023-01-03T03:16:49.555Z,100642.03
2023-01-03T03:19:55.605Z,100651.72
2023-01-03T03:22:57.538Z,100638.00
2023-01-03T03:25:43.289Z,100654.78
2023-01-03T03:28:37.859Z,100629.13
2023-01-03T03:31:23.606Z,100655.88
2023-01-03T03:34:06.650Z,100670.88
2023-01-03T03:37:03.499Z,100664.22
2023-01-03T03:39:54.728Z,100676.25
2023-01-03T03:42:56.147Z,100677.03
2023-01-03T03:45:45.355Z,100662.50
2023-01-03T03:48:20.234Z,100693.38
2023-01-03T03:51:04.547Z,100699.03
2023-01-03T03:53:39.488Z,100662.19
2023-01-03T03:56:18.041Z,100688.47
2023-01-03T03:58:55.841Z,100695.22
2023-01-03T04:01:29.987Z,100699.59
2023-01-03T04:04:08.244Z,100695.16
2023-01-03T04:06:51.475Z,100708.50
2023-01-03T04:09:23.466Z,100702.28
2023-01-03T04:11:55.487Z,100718.09
2023-01-03T04:14:27.466Z,100696.25
2023-01-03T04:16:59.487Z,100719.56
2023-01-03T04:19:31.467Z,100718.66
2023-01-03T04:22:03.465Z,100728.91
2023-01-03T04:24:35.445Z,100728.19
2023-01-03T04:27:07.442Z,100726.03
2023-01-03T04:29:39.856Z,100740.84
2023-01-03T04:32:12.011Z,100717.13
2023-01-03T04:34:44.040Z,100745.31
2023-01-03T04:37:16.058Z,100732.81
2023-01-03T04:39:48.109Z,100734.19
2023-01-03T04:42:38.825Z,100715.56
2023-01-03T04:45:11.761Z,100764.03
2023-01-03T04:47:43.733Z,100757.53
2023-01-03T04:50:15.950Z,100743.69
2023-01-03T04:52:47.921Z,100745.91
2023-01-03T04:55:20.231Z,100752.97
2023-01-03T04:57:52.507Z,100773.75
2023-01-03T05:00:24.467Z,100772.47
2023-01-03T05:02:56.480Z,100774.63
2023-01-03T05:05:28.446Z,100761.69
2023-01-03T05:08:04.649Z,100769.88
2023-01-03T05:10:39.266Z,100784.94
2023-01-03T05:13:11.641Z,100791.28
2023-01-03T05:15:44.060Z,100790.66
2023-01-03T05:18:16.061Z,100785.25
2023-01-03T05:21:06.816Z,100789.69
2023-01-03T05:23:57.514Z,100788.03
2023-01-03T05:26:29.512Z,100804.56
2023-01-03T05:29:01.448Z,100780.53
2023-01-03T05:31:33.540Z,100815.50
2023-01-03T05:34:05.589Z,100790.88
2023-01-03T05:36:37.754Z,100805.91
2023-01-03T05:39:09.720Z,100814.84
2023-01-03T05:42:00.065Z,100820.44
2023-01-03T05:44:34.353Z,100833.13
2023-01-03T05:47:06.325Z,100810.38
2023-01-03T05:49:38.454Z,100822.47
2023-01-03T05:52:10.359Z,100834.50
2023-01-03T05:54:42.186Z,100824.16
2023-01-03T05:57:14.254Z,100831.56
2023-01-03T05:59:46.224Z,100820.72
2023-01-03T06:02:18.220Z,100846.25
2023-01-03T06:04:50.280Z,100844.13
2023-01-03T06:07:22.263Z,100835.97
2023-01-03T06:09:54.193Z,100846.69
2023-01-03T06:12:30.378Z,100853.66
2023-01-03T06:15:02.432Z,100847.59
2023-01-03T06:17:53.004Z,100852.38
2023-01-03T06:20:29.049Z,100860.78
2023-01-03T06:23:00.994Z,100862.75
2023-01-03T06:25:32.931Z,100879.94
2023-01-03T06:28:04.925Z,100880.06
2023-01-03T06:30:36.890Z,100887.00
2023-01-03T06:33:08.830Z,100894.06
2023-01-03T06:35:40.858Z,100897.84
2023-01-03T06:38:12.793Z,100904.78
2023-01-03T06:40:51.043Z,100907.44
2023-01-03T06:43:22.950Z,100902.41
2023-01-03T06:46:14.182Z,100892.72
2023-01-03T06:49:05.619Z,100921.78
2023-01-03T06:51:55.948Z,100899.81
2023-01-03T06:54:30.915Z,100918.75
2023-01-03T06:57:03.117Z,100931.47
2023-01-03T06:59:35.076Z,100904.19
2023-01-03T07:02:07.289Z,100913.84
2023-01-03T07:04:39.435Z,100931.19
2023-01-03T07:07:11.368Z,100930.41
2023-01-03T07:09:43.326Z,100931.47
2023-01-03T07:12:37.890Z,100929.63
2023-01-03T07:15:10.514Z,100947.59
2023-01-03T07:17:42.458Z,100947.44
2023-01-03T07:20:14.458Z,100944.09
2023-01-03T07:22:46.401Z,100939.69
2023-01-03T07:25:18.464Z,100946.53
2023-01-03T07:28:01.864Z,100977.72
2023-01-03T07:30:39.681Z,100981.59
2023-01-03T07:33:13.990Z,100967.94
2023-01-03T07:35:46.398Z,100961.25
2023-01-03T07:38:19.001Z,100969.75
2023-01-03T07:40:50.919Z,100980.25
2023-01-03T07:43:37.979Z,100964.94
2023-01-03T07:46:23.032Z,100998.69
2023-01-03T07:49:07.889Z,100998.72
2023-01-03T07:51:43.081Z,100988.63
2023-01-03T07:54:15.021Z,101004.97
2023-01-03T07:56:46.939Z,100999.59
2023-01-03T07:59:19.285Z,100991.66
2023-01-03T08:01:51.363Z,100999.03
2023-01-03T08:04:23.329Z,101006.94
2023-01-03T08:06:55.285Z,101002.03
2023-01-03T08:09:46.654Z,101014.56
2023-01-03T08:12:37.148Z,101002.22
2023-01-03T08:15:09.494Z,101014.66
2023-01-03T08:17:41.426Z,101030.72
2023-01-03T08:20:13.292Z,101010.00
2023-01-03T08:22:45.198Z,101040.72
2023-01-03T08:25:17.218Z,101030.84
2023-01-03T08:27:50.498Z,101020.19
2023-01-03T08:30:22.609Z,101033.44
2023-01-03T08:32:55.808Z,101039.50
2023-01-03T08:35:31.742Z,101032.44
2023-01-03T08:38:06.260Z,101038.13
2023-01-03T08:40:42.316Z,101050.69
2023-01-03T08:43:16.191Z,101049.94
2023-01-03T08:45:49.436Z,101063.13
2023-01-03T08:48:23.419Z,101020.69
2023-01-03T08:50:55.436Z,101034.50
2023-01-03T08:53:30.156Z,101050.69
2023-01-03T08:56:02.073Z,101035.53
2023-01-03T08:58:34.419Z,101031.44
2023-01-03T09:01:07.232Z,101051.00
2023-01-03T09:03:39.451Z,101059.31
2023-01-03T09:06:11.506Z,101048.72
2023-01-03T09:08:43.630Z,101052.28
2023-01-03T09:11:15.721Z,101037.59
2023-01-03T09:13:47.716Z,101053.06
2023-01-03T09:16:21.061Z,101054.94
2023-01-03T09:18:53.021Z,101058.84
2023-01-03T09:21:25.004Z,101070.56
2023-01-03T09:23:57.084Z,101065.06
2023-01-03T09:26:30.021Z,101051.72
2023-01-03T09:29:02.275Z,101074.81
2023-01-03T09:31:35.594Z,101075.34
2023-01-03T09:34:07.648Z,101046.97
2023-01-03T09:36:40.857Z,101063.28
2023-01-03T09:39:12.915Z,101067.28
2023-01-03T09:41:45.197Z,101081.91
2023-01-03T09:44:17.388Z,101068.50
2023-01-03T09:46:49.421Z,101038.94
2023-01-03T09:49:21.398Z,101050.75
2023-01-03T09:52:13.072Z,101053.66
2023-01-03T09:55:04.226Z,101044.47
2023-01-03T09:57:55.479Z,101053.31
2023-01-03T10:00:57.489Z,101090.47
2023-01-03T10:04:12.047Z,101070.97
2023-01-03T10:07:17.168Z,101069.38
2023-01-03T10:10:16.788Z,101084.59
2023-01-03T10:13:16.180Z,101091.00
2023-01-03T10:15:58.810Z,101094.34
2023-01-03T10:18:55.582Z,101103.84
2023-01-03T10:22:00.772Z,101109.56
2023-01-03T10:24:41.648Z,101111.41
2023-01-03T10:27:18.051Z,101098.13
2023-01-03T10:29:54.362Z,101105.97
2023-01-03T10:32:32.119Z,101106.81
2023-01-03T10:35:16.919Z,101107.16
2023-01-03T10:37:52.487Z,101120.63
2023-01-03T10:40:42.281Z,101106.88
2023-01-03T10:43:26.193Z,101096.56
2023-01-03T10:46:04.730Z,101113.25
2023-01-03T10:51:43.123Z,101112.63
2023-01-03T10:54:18.245Z,101115.47
2023-01-03T10:56:51.486Z,101077.03
2023-01-03T10:59:31.908Z,101103.78
2023-01-03T11:02:09.869Z,101122.97
2023-01-03T11:04:42.823Z,101106.47
2023-01-03T11:07:17.237Z,101094.06
2023-01-03T11:09:54.750Z,101125.38
2023-01-03T11:12:40.892Z,101132.31
2023-01-03T11:15:18.999Z,101135.91
2023-01-03T11:18:02.735Z,101121.44
2023-01-03T11:20:49.101Z,101129.75
2023-01-03T11:23:41.549Z,101094.25
2023-01-03T11:26:50.783Z,101130.72
2023-01-03T11:30:04.398Z,101136.94
2023-01-03T11:32:44.121Z,101141.72
2023-01-03T11:35:35.371Z,101145.53
2023-01-03T11:38:28.681Z,101144.03
2023-01-03T11:41:19.533Z,101143.06
2023-01-03T11:44:09.871Z,101145.69
2023-01-03T11:47:09.271Z,101139.81
2023-01-03T11:50:08.455Z,101137.38
2023-01-03T11:52:55.405Z,101136.25
2023-01-03T11:56:04.851Z,101142.50
2023-01-03T11:58:57.731Z,101135.81
2023-01-03T12:01:42.925Z,101130.53
2023-01-03T12:04:40.934Z,101125.78
2023-01-03T12:07:47.214Z,101145.78
2023-01-03T12:10:35.199Z,101138.06
2023-01-03T12:13:13.064Z,101144.88
2023-01-03T12:15:48.501Z,101144.72
2023-01-03T12:18:37.626Z,101140.44
2023-01-03T12:21:19.425Z,101142.56
2023-01-03T12:23:57.086Z,101146.88
2023-01-03T12:26:30.213Z,101140.81
2023-01-03T12:29:09.525Z,101139.47
2023-01-03T12:31:50.065Z,101137.25
2023-01-03T12:34:34.409Z,101140.44
2023-01-03T12:37:13.700Z,101117.41
2023-01-03T12:40:01.994Z,101140.53
2023-01-03T12:42:33.941Z,101145.78
2023-01-03T12:45:09.518Z,101147.47
2023-01-03T12:47:44.325Z,101141.28
2023-01-03T12:50:33.645Z,101133.31
2023-01-03T12:53:14.530Z,101153.66
2023-01-03T12:55:46.279Z,101158.94
2023-01-03T12:58:39.252Z,101144.38
2023-01-03T13:01:40.007Z,101151.38
2023-01-03T13:04:33.914Z,101152.22
2023-01-03T13:07:30.028Z,101154.94
2023-01-03T13:10:09.414Z,101144.00
2023-01-03T13:12:48.844Z,101147.69
2023-01-03T13:15:38.996Z,101143.03
2023-01-03T13:18:37.400Z,101159.84
2023-01-03T13:21:46.877Z,101164.50
2023-01-03T13:24:46.352Z,101160.63
2023-01-03T13:27:21.335Z,101162.63
2023-01-03T13:29:53.561Z,101159.06
2023-01-03T13:32:36.344Z,101161.50
2023-01-03T13:35:16.232Z,101157.47
2023-01-03T13:37:55.182Z,101145.94
2023-01-03T13:41:08.007Z,101157.88
2023-01-03T13:43:40.272Z,101154.13
2023-01-03T13:46:20.441Z,101146.94
2023-01-03T13:48:56.969Z,101169.38
2023-01-03T13:51:38.072Z,101172.94
2023-01-03T13:54:13.153Z,101170.94
2023-01-03T13:56:45.090Z,101175.69
2023-01-03T13:59:19.982Z,101179.28
2023-01-03T14:02:10.223Z,101186.97
2023-01-03T14:05:09.983Z,101203.19
2023-01-03T14:08:00.438Z,101201.75
2023-01-03T14:10:49.734Z,101208.34
2023-01-03T14:13:33.626Z,101204.16
2023-01-03T14:16:27.355Z,101205.63
2023-01-03T14:19:06.957Z,101198.75
2023-01-03T14:21:54.860Z,101196.00
2023-01-03T14:24:32.562Z,101183.22
2023-01-03T14:27:17.155Z,101165.88
2023-01-03T14:29:52.692Z,101207.28
2023-01-03T14:32:33.744Z,101217.69
2023-01-03T14:35:06.890Z,101206.72
2023-01-03T14:37:46.809Z,101208.78
2023-01-03T14:40:20.159Z,101215.44
2023-01-03T14:42:52.098Z,101219.19
2023-01-03T14:45:24.089Z,101194.88
2023-01-03T14:47:56.089Z,101212.00
2023-01-03T14:50:30.284Z,101231.06
2023-01-03T14:53:03.243Z,101221.84
2023-01-03T14:55:35.302Z,101222.84
2023-01-03T14:58:36.248Z,101230.91
2023-01-03T15:01:10.344Z,101231.84
2023-01-03T15:03:46.355Z,101241.53
2023-01-03T15:06:26.769Z,101245.06
2023-01-03T15:09:01.744Z,101239.91
2023-01-03T15:11:56.703Z,101236.84
2023-01-03T15:14:31.913Z,101247.72
2023-01-03T15:17:10.048Z,101247.63
2023-01-03T15:19:50.421Z,101254.44
2023-01-03T15:22:25.293Z,101245.31
2023-01-03T15:25:05.906Z,101248.06
2023-01-03T15:27:37.826Z,101259.41
2023-01-03T15:30:16.539Z,101230.81
2023-01-03T15:32:54.681Z,101267.03
2023-01-03T15:35:42.717Z,101259.75
2023-01-03T15:38:17.653Z,101265.84
2023-01-03T15:40:51.342Z,101254.84
2023-01-03T15:43:31.832Z,101243.06
2023-01-03T15:46:16.792Z,101218.16
2023-01-03T15:48:55.844Z,101249.38
2023-01-03T15:51:28.017Z,101264.75
2023-01-03T15:54:00.053Z,101265.75
2023-01-03T15:56:35.594Z,101278.63
2023-01-03T15:59:09.839Z,101270.34
2023-01-03T16:01:41.992Z,101256.81
2023-01-03T16:04:14.152Z,101269.81
2023-01-03T16:06:46.150Z,101274.22
2023-01-03T16:09:18.180Z,101256.59
2023-01-03T16:11:56.573Z,101259.94
2023-01-03T16:14:35.579Z,101277.78
2023-01-03T16:17:09.309Z,101286.22
2023-01-03T16:19:41.459Z,101268.47
2023-01-03T16:25:06.892Z,101283.38
2023-01-03T16:27:38.877Z,101269.97
2023-01-03T16:30:12.935Z,101275.88
2023-01-03T16:32:45.005Z,101276.91
2023-01-03T16:35:19.577Z,101293.63
2023-01-03T16:37:51.600Z,101230.91
2023-01-03T16:40:23.579Z,101282.25
2023-01-03T16:42:55.608Z,101294.84
2023-01-03T16:45:27.595Z,101276.63
2023-01-03T16:47:59.844Z,101308.63
2023-01-03T16:50:35.255Z,101318.31
2023-01-03T16:53:09.604Z,101310.47
2023-01-03T16:55:41.676Z,101293.13
2023-01-03T16:58:16.192Z,101292.34
2023-01-03T17:00:48.531Z,101295.88
2023-01-03T17:03:20.988Z,101279.19
2023-01-03T17:05:53.299Z,101299.53
2023-01-03T17:08:39.961Z,101327.38
2023-01-03T17:11:11.939Z,101308.31
2023-01-03T17:13:47.807Z,101302.50
2023-01-03T17:16:23.552Z,101325.34
2023-01-03T17:18:56.154Z,101334.56
2023-01-03T17:21:34.633Z,101332.09
2023-01-03T17:24:12.554Z,101328.69
2023-01-03T17:26:45.026Z,101304.31
2023-01-03T17:29:21.064Z,101298.06
2023-01-03T17:31:53.675Z,101260.97
2023-01-03T17:34:31.233Z,101279.31
2023-01-03T17:37:03.142Z,101311.41
2023-01-03T17:39:35.046Z,101302.97
2023-01-03T17:42:16.461Z,101291.06
2023-01-03T17:45:09.471Z,101335.78
2023-01-03T17:48:02.766Z,101344.16
2023-01-03T17:50:34.769Z,101334.84
2023-01-03T17:53:10.777Z,101347.47
2023-01-03T17:55:45.015Z,101328.19
2023-01-03T17:58:25.099Z,101338.88
2023-01-03T18:00:57.669Z,101323.94
2023-01-03T18:03:31.213Z,101351.72
2023-01-03T18:06:12.567Z,101355.22
2023-01-03T18:08:45.212Z,101352.63
2023-01-03T18:11:25.825Z,101338.38
2023-01-03T18:13:57.861Z,101352.81
2023-01-03T18:16:30.470Z,101329.97
2023-01-03T18:19:02.364Z,101324.78
2023-01-03T18:21:34.867Z,101355.19
2023-01-03T18:24:19.043Z,101367.13
2023-01-03T18:26:54.274Z,101372.00
2023-01-03T18:29:26.232Z,101367.22
2023-01-03T18:31:58.469Z,101354.22
2023-01-03T18:34:30.434Z,101377.00
2023-01-03T18:37:02.501Z,101321.25
2023-01-03T18:39:34.471Z,101372.44
2023-01-03T18:42:24.974Z,101386.88
2023-01-03T18:44:56.936Z,101369.06
2023-01-03T18:47:28.874Z,101379.88
2023-01-03T18:50:00.803Z,101379.22
2023-01-03T18:52:39.037Z,101404.50
2023-01-03T18:55:23.749Z,101397.81
2023-01-03T18:57:59.101Z,101384.91
2023-01-03T19:00:31.023Z,101378.28
2023-01-03T19:03:03.289Z,101366.25
2023-01-03T19:05:35.204Z,101383.00
2023-01-03T19:08:09.331Z,101375.84
2023-01-03T19:10:41.253Z,101385.63
2023-01-03T19:13:26.272Z,101382.72
2023-01-03T19:15:58.324Z,101383.72
2023-01-03T19:18:30.307Z,101390.41
2023-01-03T19:21:02.344Z,101383.41
2023-01-03T19:23:34.280Z,101381.34
2023-01-03T19:26:06.452Z,101382.91
2023-01-03T19:28:40.769Z,101362.38
2023-01-03T19:31:12.985Z,101383.81
2023-01-03T19:33:44.926Z,101361.78
2023-01-03T19:36:17.471Z,101406.00
2023-01-03T19:38:50.294Z,101370.25
2023-01-03T19:41:22.434Z,101379.44
2023-01-03T19:43:54.569Z,101380.38
2023-01-03T19:46:26.593Z,101378.94
2023-01-03T19:48:58.774Z,101393.28
2023-01-03T19:51:30.732Z,101386.16
2023-01-03T19:54:02.674Z,101389.84
2023-01-03T19:56:34.695Z,101372.88
2023-01-03T19:59:08.149Z,101385.94
2023-01-03T20:02:14.089Z,101379.09
2023-01-03T20:04:33.017Z,101379.78
2023-01-03T20:07:13.954Z,101409.84
2023-01-03T20:09:45.858Z,101391.91
2023-01-03T20:12:23.304Z,101395.72
2023-01-03T20:15:00.019Z,101387.78
2023-01-03T20:17:36.512Z,101398.69
2023-01-03T20:20:11.651Z,101395.34
2023-01-03T20:23:04.484Z,101402.84
2023-01-03T20:25:37.456Z,101372.81
2023-01-03T20:28:20.043Z,101379.06
2023-01-03T20:30:51.884Z,101384.41
2023-01-03T20:33:24.742Z,101408.88
2023-01-03T20:36:16.235Z,101406.72
2023-01-03T20:38:54.805Z,101378.63
2023-01-03T20:41:36.920Z,101397.25
2023-01-03T20:44:10.532Z,101401.13
2023-01-03T20:46:42.677Z,101369.69
2023-01-03T20:49:20.000Z,101403.69
2023-01-03T20:51:53.040Z,101417.81
2023-01-03T20:54:24.940Z,101416.00
2023-01-03T20:56:56.917Z,101409.34
2023-01-03T20:59:29.588Z,101411.94
2023-01-03T21:02:01.654Z,101407.13
2023-01-03T21:04:33.747Z,101412.94
2023-01-03T21:07:11.307Z,101427.78
2023-01-03T21:09:43.762Z,101420.56
2023-01-03T21:12:16.332Z,101421.34
2023-01-03T21:14:49.824Z,101424.03
2023-01-03T21:17:21.813Z,101425.75
2023-01-03T21:19:53.683Z,101422.50
2023-01-03T21:22:25.664Z,101429.28
2023-01-03T21:24:58.060Z,101412.69
2023-01-03T21:27:30.480Z,101427.16
2023-01-03T21:30:02.411Z,101378.31
2023-01-03T21:32:34.264Z,101432.31
2023-01-03T21:35:06.928Z,101428.22
2023-01-03T21:37:38.873Z,101430.06
2023-01-03T21:40:24.845Z,101447.72
2023-01-03T21:43:04.440Z,101448.78
2023-01-03T21:45:40.749Z,101438.63
2023-01-03T21:48:19.217Z,101445.66
2023-01-03T21:50:51.367Z,101444.00
2023-01-03T21:53:23.634Z,101454.09
2023-01-03T21:55:55.543Z,101444.00
2023-01-03T21:58:28.251Z,101444.72
2023-01-03T22:01:10.319Z,101457.41
2023-01-03T22:04:01.332Z,101440.84
2023-01-03T22:06:33.841Z,101467.22
2023-01-03T22:09:06.533Z,101466.34
2023-01-03T22:11:39.062Z,101451.69
2023-01-03T22:14:11.068Z,101439.63
2023-01-03T22:16:43.102Z,101398.25
2023-01-03T22:19:15.065Z,101455.63
2023-01-03T22:21:47.006Z,101449.72
2023-01-03T22:24:18.963Z,101454.00
2023-01-03T22:26:50.910Z,101431.94
2023-01-03T22:29:22.867Z,101446.44
2023-01-03T22:31:54.853Z,101412.66
2023-01-03T22:34:26.889Z,101428.09
2023-01-03T22:36:58.761Z,101434.78
2023-01-03T22:39:30.746Z,101440.72
2023-01-03T22:42:02.795Z,101421.25
2023-01-03T22:44:34.812Z,101427.19
2023-01-03T22:47:07.040Z,101442.66
2023-01-03T22:49:40.126Z,101443.66
2023-01-03T22:52:12.062Z,101445.34
2023-01-03T22:54:44.171Z,101450.53
2023-01-03T22:57:16.310Z,101450.94
2023-01-03T22:59:48.258Z,101410.56
2023-01-03T23:02:26.192Z,101461.31
2023-01-03T23:05:00.201Z,101451.38
2023-01-03T23:07:32.132Z,101466.59
2023-01-03T23:10:04.336Z,101455.75
2023-01-03T23:12:55.908Z,101450.66
2023-01-03T23:15:31.126Z,101448.16
2023-01-03T23:18:03.113Z,101438.22
2023-01-03T23:20:35.823Z,101467.75
2023-01-03T23:23:09.931Z,101461.19
2023-01-03T23:25:41.934Z,101451.06
2023-01-03T23:28:13.898Z,101455.28
2023-01-03T23:30:45.899Z,101442.75
2023-01-03T23:33:17.832Z,101442.69
2023-01-03T23:35:50.327Z,101448.53
2023-01-03T23:38:22.272Z,101437.84
2023-01-03T23:40:54.232Z,101430.22
2023-01-03T23:43:26.204Z,101459.75
2023-01-03T23:45:58.867Z,101459.88
2023-01-03T23:48:31.070Z,101448.94
2023-01-03T23:51:04.875Z,101436.22
2023-01-03T23:53:38.945Z,101463.47
2023-01-03T23:56:17.121Z,101458.47
2023-01-03T23:58:49.575Z,101472.06
